KDCU/DCU METAR and TAF weather

Enter ICAO airport designator
Station Type Date Time Source
KDCU METAR 2019/04/18 19:53 UTC NOAA

KDCU 181953Z AUTO 17020KT 10SM CLR 27/14 A2974 RMK AO2 PK WND 17026/1939 SLP064 T02720139


Station Type Date Time Source
KDCU Decoded METAR 2019/04/18 19:53 UTC NOAA

PRYOR FIELD, AL, United States (KDCU) 34-39N 086-57W 176M
Apr 18, 2019 - 03:53 PM EDT / 2019.04.18 1953 UTC
Wind: from the S (170 degrees) at 23 MPH (20 KT):0
Visibility: 10 mile(s):0
Sky conditions: clear
Temperature: 81.0 F (27.2 C)
Dew Point: 57.0 F (13.9 C)
Relative Humidity: 44%
Pressure (altimeter): 29.74 in. Hg (1007 hPa)
ob: KDCU 181953Z AUTO 17020KT 10SM CLR 27/14 A2974 RMK AO2 PK WND 17026/1939 SLP064 T02720139
cycle: 20

Station Type Date Time Source
KDCU TAF UTC NOAA

Error!

Example: see airport list